Hamilton, OH

11:15 AM EDT on May 24, 2015 (GMT -0400)
APRSWXNET | | Change Station
CLOSE
Current Station
Personal Weather Station
Location: Hamilton, OH
Elevation: 587 ft
Nearby Weather Stations

Elev 587 ft 39.41 °N, 84.49 °W | Updated 23 minutes ago

Partly Cloudy
Partly Cloudy
77 °F
Feels Like 78 °F
N
4
Wind Variable Wind from ENE
Gusts 12.0 mph

Today
High -- | Low -- °F
--% Chance of Precip.
Yesterday
High -- | Low -- °F
Precip. -- in
6:17 AM 8:52 PM
Waxing Crescent, 40% visible
Pressure 30.28 in
Visibility 10.0 miles
Clouds Mostly Cloudy 7000 ft
Heat Index 78 °F
Dew Point 55 °F
Humidity 46%
Rainfall in
Snow Depth Not available.
UV 4 out of 12
Pollen 9.60 out of 12
Air Quality Not available.
Flu Activity Local Activity
METAR KHAO 241453Z AUTO VRB05KT 10SM BKN070 25/12 A3029 RMK AO2 SLP253 T02500122 58006

More Conditions Fewer Conditions

Pressure 30.28 in
Visibility 10.0 miles
Clouds Mostly Cloudy 7000 ft
Heat Index 78 °F
Dew Point 55 °F
Humidity 46%
Rainfall in
Snow Depth Not available.
UV 4 out of 12
Pollen 9.60 out of 12
Air Quality Not available.
Flu Activity Local Activity
METAR KHAO 241453Z AUTO VRB05KT 10SM BKN070 25/12 A3029 RMK AO2 SLP253 T02500122 58006

More Conditions Fewer Conditions

10-Day Weather Forecast

Almanac

Astronomy

May. 24, 2015 Rise Set
Actual Time
Civil Twilight
Nautical Twilight
Astronomical Twilight
Moon
Length of Visible Light
Length of Day
Tomorrow will be .
, % of the Moon is Illuminated

Today's Extremes

State Highs State Lows

Community

WunderPhotos

Upload Photos

1,823,764 photos uploaded!

WunderBlogs® & News

Nearby

Air Quality

  Air Quality AQ Index Pollutant
Not available.

Snow Depth

Station Depth Elevation

Earthquake Activity

City Distance Mag. Time & Date
Minimum magnitude displayed is 2.5.

Coastal Water Temperatures

Place Temperature

Stations

Nearby Weather Stations

Station Location Temp. Windchill Dew Point Humidity Wind Precip. Elev Updated Type